sensor_id;sensor_type;location;lat;lon;timestamp;temperature;humidity
15926;DHT22;8062;53.882;10.642;2023-09-19T00:01:20;16.80;99.90
15926;DHT22;8062;53.882;10.642;2023-09-19T00:02:40;16.80;99.90
15926;DHT22;8062;53.882;10.642;2023-09-19T00:03:59;16.70;99.90
15926;DHT22;8062;53.882;10.642;2023-09-19T00:05:20;16.70;99.90
15926;DHT22;8062;53.882;10.642;2023-09-19T00:06:43;16.70;99.90
15926;DHT22;8062;53.882;10.642;2023-09-19T00:08:03;16.70;99.90
15926;DHT22;8062;53.882;10.642;2023-09-19T00:09:23;16.70;99.90
15926;DHT22;8062;53.882;10.642;2023-09-19T00:10:46;16.70;99.90
15926;DHT22;8062;53.882;10.642;2023-09-19T00:12:06;16.80;99.90
15926;DHT22;8062;53.882;10.642;2023-09-19T00:13:28;16.80;99.90
15926;DHT22;8062;53.882;10.642;2023-09-19T00:14:48;16.70;99.90
15926;DHT22;8062;53.882;10.642;2023-09-19T00:16:11;16.80;99.90
15926;DHT22;8062;53.882;10.642;2023-09-19T00:17:30;16.80;99.90
15926;DHT22;8062;53.882;10.642;2023-09-19T00:18:51;16.80;99.90
15926;DHT22;8062;53.882;10.642;2023-09-19T00:20:11;16.80;99.90
15926;DHT22;8062;53.882;10.642;2023-09-19T00:21:32;16.80;99.90
15926;DHT22;8062;53.882;10.642;2023-09-19T00:22:52;16.80;99.90
15926;DHT22;8062;53.882;10.642;2023-09-19T00:24:12;16.90;99.90
15926;DHT22;8062;53.882;10.642;2023-09-19T00:25:33;16.80;99.90
15926;DHT22;8062;53.882;10.642;2023-09-19T00:26:54;16.80;99.90
15926;DHT22;8062;53.882;10.642;2023-09-19T00:28:14;16.90;99.90
15926;DHT22;8062;53.882;10.642;2023-09-19T00:29:34;16.90;99.90
15926;DHT22;8062;53.882;10.642;2023-09-19T00:30:53;16.80;99.90
15926;DHT22;8062;53.882;10.642;2023-09-19T00:32:16;16.80;99.90
15926;DHT22;8062;53.882;10.642;2023-09-19T00:33:36;16.80;99.90
15926;DHT22;8062;53.882;10.642;2023-09-19T00:34:56;16.80;99.90
15926;DHT22;8062;53.882;10.642;2023-09-19T00:36:15;16.80;99.90
15926;DHT22;8062;53.882;10.642;2023-09-19T00:37:35;16.80;99.90
15926;DHT22;8062;53.882;10.642;2023-09-19T00:38:55;16.70;99.90
15926;DHT22;8062;53.882;10.642;2023-09-19T00:40:14;16.70;99.90
15926;DHT22;8062;53.882;10.642;2023-09-19T00:41:37;16.70;99.90
15926;DHT22;8062;53.882;10.642;2023-09-19T00:42:57;16.70;99.90
15926;DHT22;8062;53.882;10.642;2023-09-19T00:44:20;16.70;99.90
15926;DHT22;8062;53.882;10.642;2023-09-19T00:45:45;16.70;99.90
15926;DHT22;8062;53.882;10.642;2023-09-19T00:47:04;16.60;99.90
15926;DHT22;8062;53.882;10.642;2023-09-19T00:48:25;16.60;99.90
15926;DHT22;8062;53.882;10.642;2023-09-19T00:49:48;16.60;99.90
15926;DHT22;8062;53.882;10.642;2023-09-19T00:51:13;16.60;99.90
15926;DHT22;8062;53.882;10.642;2023-09-19T00:52:39;16.60;99.90
15926;DHT22;8062;53.882;10.642;2023-09-19T00:53:59;16.60;99.90
15926;DHT22;8062;53.882;10.642;2023-09-19T00:55:19;16.60;99.90
15926;DHT22;8062;53.882;10.642;2023-09-19T00:56:41;16.60;99.90
15926;DHT22;8062;53.882;10.642;2023-09-19T00:58:02;16.60;99.90
15926;DHT22;8062;53.882;10.642;2023-09-19T00:59:21;16.60;99.90
15926;DHT22;8062;53.882;10.642;2023-09-19T01:00:42;16.60;99.90
15926;DHT22;8062;53.882;10.642;2023-09-19T01:02:04;16.60;99.90
15926;DHT22;8062;53.882;10.642;2023-09-19T01:03:25;16.60;99.90
15926;DHT22;8062;53.882;10.642;2023-09-19T01:04:45;16.60;99.90
15926;DHT22;8062;53.882;10.642;2023-09-19T01:06:05;16.60;99.90
15926;DHT22;8062;53.882;10.642;2023-09-19T01:07:26;16.60;99.90
15926;DHT22;8062;53.882;10.642;2023-09-19T01:08:49;16.60;99.90
15926;DHT22;8062;53.882;10.642;2023-09-19T01:10:10;16.50;99.90
15926;DHT22;8062;53.882;10.642;2023-09-19T01:11:42;16.60;99.90
15926;DHT22;8062;53.882;10.642;2023-09-19T01:16:27;16.60;99.90
15926;DHT22;8062;53.882;10.642;2023-09-19T01:21:28;16.50;99.90
15926;DHT22;8062;53.882;10.642;2023-09-19T01:25:07;16.50;99.90
15926;DHT22;8062;53.882;10.642;2023-09-19T01:28:24;16.50;99.90
15926;DHT22;8062;53.882;10.642;2023-09-19T01:29:48;16.50;99.90
15926;DHT22;8062;53.882;10.642;2023-09-19T01:31:11;16.50;99.90
15926;DHT22;8062;53.882;10.642;2023-09-19T01:32:31;16.50;99.90
15926;DHT22;8062;53.882;10.642;2023-09-19T01:34:02;16.50;99.90
15926;DHT22;8062;53.882;10.642;2023-09-19T01:35:23;16.50;99.90
15926;DHT22;8062;53.882;10.642;2023-09-19T01:36:43;16.50;99.90
15926;DHT22;8062;53.882;10.642;2023-09-19T01:38:06;16.50;99.90
15926;DHT22;8062;53.882;10.642;2023-09-19T01:39:29;16.50;99.90
15926;DHT22;8062;53.882;10.642;2023-09-19T01:40:59;16.50;99.90
15926;DHT22;8062;53.882;10.642;2023-09-19T01:42:35;16.50;99.90
15926;DHT22;8062;53.882;10.642;2023-09-19T01:43:57;16.50;99.90
15926;DHT22;8062;53.882;10.642;2023-09-19T01:45:36;16.50;99.90
15926;DHT22;8062;53.882;10.642;2023-09-19T01:47:03;16.50;99.90
15926;DHT22;8062;53.882;10.642;2023-09-19T01:48:35;16.50;99.90
15926;DHT22;8062;53.882;10.642;2023-09-19T01:50:10;16.50;99.90
15926;DHT22;8062;53.882;10.642;2023-09-19T01:51:32;16.50;99.90
15926;DHT22;8062;53.882;10.642;2023-09-19T01:52:57;16.50;99.90
15926;DHT22;8062;53.882;10.642;2023-09-19T01:54:41;16.50;99.90
15926;DHT22;8062;53.882;10.642;2023-09-19T01:56:08;16.50;99.90
15926;DHT22;8062;53.882;10.642;2023-09-19T01:58:01;16.50;99.90
15926;DHT22;8062;53.882;10.642;2023-09-19T01:59:28;16.50;99.90
15926;DHT22;8062;53.882;10.642;2023-09-19T02:00:51;16.50;99.90
15926;DHT22;8062;53.882;10.642;2023-09-19T02:02:12;16.50;99.90
15926;DHT22;8062;53.882;10.642;2023-09-19T02:03:34;16.50;99.90
15926;DHT22;8062;53.882;10.642;2023-09-19T02:04:54;16.40;99.90
15926;DHT22;8062;53.882;10.642;2023-09-19T02:06:15;16.40;99.90
15926;DHT22;8062;53.882;10.642;2023-09-19T02:07:35;16.40;99.90
15926;DHT22;8062;53.882;10.642;2023-09-19T02:08:55;16.40;99.90
15926;DHT22;8062;53.882;10.642;2023-09-19T02:10:15;16.40;99.90
15926;DHT22;8062;53.882;10.642;2023-09-19T02:11:35;16.30;99.90
15926;DHT22;8062;53.882;10.642;2023-09-19T02:12:54;16.30;99.90
15926;DHT22;8062;53.882;10.642;2023-09-19T02:14:14;16.30;99.90
15926;DHT22;8062;53.882;10.642;2023-09-19T02:15:34;16.30;99.90
15926;DHT22;8062;53.882;10.642;2023-09-19T02:16:55;16.30;99.90
15926;DHT22;8062;53.882;10.642;2023-09-19T02:18:15;16.30;99.90
15926;DHT22;8062;53.882;10.642;2023-09-19T02:19:35;16.30;99.90
15926;DHT22;8062;53.882;10.642;2023-09-19T02:20:56;16.30;99.90
15926;DHT22;8062;53.882;10.642;2023-09-19T02:22:18;16.30;99.90
15926;DHT22;8062;53.882;10.642;2023-09-19T02:23:37;16.30;99.90
15926;DHT22;8062;53.882;10.642;2023-09-19T02:24:58;16.30;99.90
15926;DHT22;8062;53.882;10.642;2023-09-19T02:26:19;16.30;99.90
15926;DHT22;8062;53.882;10.642;2023-09-19T02:27:40;16.30;99.90
15926;DHT22;8062;53.882;10.642;2023-09-19T02:29:01;16.30;99.90
15926;DHT22;8062;53.882;10.642;2023-09-19T02:30:24;16.30;99.90
15926;DHT22;8062;53.882;10.642;2023-09-19T02:31:44;16.20;99.90
15926;DHT22;8062;53.882;10.642;2023-09-19T02:33:05;16.20;99.90
15926;DHT22;8062;53.882;10.642;2023-09-19T02:34:25;16.20;99.90
15926;DHT22;8062;53.882;10.642;2023-09-19T02:35:44;16.20;99.90
15926;DHT22;8062;53.882;10.642;2023-09-19T02:37:04;16.20;99.90
15926;DHT22;8062;53.882;10.642;2023-09-19T02:38:24;16.20;99.90
15926;DHT22;8062;53.882;10.642;2023-09-19T02:39:45;16.20;99.90
15926;DHT22;8062;53.882;10.642;2023-09-19T02:41:05;16.10;99.90
15926;DHT22;8062;53.882;10.642;2023-09-19T02:42:25;16.10;99.90
15926;DHT22;8062;53.882;10.642;2023-09-19T02:43:44;16.10;99.90
15926;DHT22;8062;53.882;10.642;2023-09-19T02:45:05;16.10;99.90
15926;DHT22;8062;53.882;10.642;2023-09-19T02:46:25;16.10;99.90
15926;DHT22;8062;53.882;10.642;2023-09-19T02:47:45;16.10;99.90
15926;DHT22;8062;53.882;10.642;2023-09-19T02:49:05;16.10;99.90
15926;DHT22;8062;53.882;10.642;2023-09-19T02:50:25;16.10;99.90
15926;DHT22;8062;53.882;10.642;2023-09-19T02:51:45;16.10;99.90
15926;DHT22;8062;53.882;10.642;2023-09-19T02:53:07;16.10;99.90
15926;DHT22;8062;53.882;10.642;2023-09-19T02:54:27;16.00;99.90
15926;DHT22;8062;53.882;10.642;2023-09-19T02:55:47;16.10;99.90
15926;DHT22;8062;53.882;10.642;2023-09-19T02:57:07;16.10;99.90
15926;DHT22;8062;53.882;10.642;2023-09-19T02:58:27;16.00;99.90
15926;DHT22;8062;53.882;10.642;2023-09-19T02:59:50;16.00;99.90
15926;DHT22;8062;53.882;10.642;2023-09-19T03:01:10;16.00;99.90
15926;DHT22;8062;53.882;10.642;2023-09-19T03:02:33;16.00;99.90
15926;DHT22;8062;53.882;10.642;2023-09-19T03:03:54;16.00;99.90
15926;DHT22;8062;53.882;10.642;2023-09-19T03:05:14;15.90;99.90
15926;DHT22;8062;53.882;10.642;2023-09-19T03:06:34;15.90;99.90
15926;DHT22;8062;53.882;10.642;2023-09-19T03:07:53;15.90;99.90
15926;DHT22;8062;53.882;10.642;2023-09-19T03:09:14;15.90;99.90
15926;DHT22;8062;53.882;10.642;2023-09-19T03:10:35;15.90;99.90
15926;DHT22;8062;53.882;10.642;2023-09-19T03:11:56;15.90;99.90
15926;DHT22;8062;53.882;10.642;2023-09-19T03:13:16;15.90;99.90
15926;DHT22;8062;53.882;10.642;2023-09-19T03:14:35;15.90;99.90
15926;DHT22;8062;53.882;10.642;2023-09-19T03:15:56;15.80;99.90
15926;DHT22;8062;53.882;10.642;2023-09-19T03:17:18;15.90;99.90
15926;DHT22;8062;53.882;10.642;2023-09-19T03:18:39;15.80;99.90
15926;DHT22;8062;53.882;10.642;2023-09-19T03:19:59;15.80;99.90
15926;DHT22;8062;53.882;10.642;2023-09-19T03:21:18;15.80;99.90
15926;DHT22;8062;53.882;10.642;2023-09-19T03:22:39;15.80;99.90
15926;DHT22;8062;53.882;10.642;2023-09-19T03:24:02;15.80;99.90
15926;DHT22;8062;53.882;10.642;2023-09-19T03:25:21;15.80;99.90
15926;DHT22;8062;53.882;10.642;2023-09-19T03:26:44;15.80;99.90
15926;DHT22;8062;53.882;10.642;2023-09-19T03:28:04;15.80;99.90
15926;DHT22;8062;53.882;10.642;2023-09-19T03:29:25;15.80;99.90
15926;DHT22;8062;53.882;10.642;2023-09-19T03:30:45;15.80;99.90
15926;DHT22;8062;53.882;10.642;2023-09-19T03:32:05;15.70;99.90
15926;DHT22;8062;53.882;10.642;2023-09-19T03:33:25;15.70;99.90
15926;DHT22;8062;53.882;10.642;2023-09-19T03:34:45;15.70;99.90
15926;DHT22;8062;53.882;10.642;2023-09-19T03:36:07;15.70;99.90
15926;DHT22;8062;53.882;10.642;2023-09-19T03:37:28;15.70;99.90
15926;DHT22;8062;53.882;10.642;2023-09-19T03:38:47;15.70;99.90
15926;DHT22;8062;53.882;10.642;2023-09-19T03:40:08;15.70;99.90
15926;DHT22;8062;53.882;10.642;2023-09-19T03:41:29;15.80;99.90
15926;DHT22;8062;53.882;10.642;2023-09-19T03:42:49;15.70;99.90
15926;DHT22;8062;53.882;10.642;2023-09-19T03:44:09;15.70;99.90
15926;DHT22;8062;53.882;10.642;2023-09-19T03:45:28;15.80;99.90
15926;DHT22;8062;53.882;10.642;2023-09-19T03:46:48;15.70;99.90
15926;DHT22;8062;53.882;10.642;2023-09-19T03:48:09;15.80;99.90
15926;DHT22;8062;53.882;10.642;2023-09-19T03:49:29;15.80;99.90
15926;DHT22;8062;53.882;10.642;2023-09-19T03:50:50;15.80;99.90
15926;DHT22;8062;53.882;10.642;2023-09-19T03:52:10;15.80;99.90
15926;DHT22;8062;53.882;10.642;2023-09-19T03:53:29;15.90;99.90
15926;DHT22;8062;53.882;10.642;2023-09-19T03:54:49;15.90;99.90
15926;DHT22;8062;53.882;10.642;2023-09-19T03:56:10;15.90;99.90
15926;DHT22;8062;53.882;10.642;2023-09-19T03:57:29;15.90;99.90
15926;DHT22;8062;53.882;10.642;2023-09-19T03:58:49;16.00;99.90
15926;DHT22;8062;53.882;10.642;2023-09-19T04:00:09;15.90;99.90
15926;DHT22;8062;53.882;10.642;2023-09-19T04:01:34;15.90;99.90
15926;DHT22;8062;53.882;10.642;2023-09-19T04:02:54;15.90;99.90
15926;DHT22;8062;53.882;10.642;2023-09-19T04:04:15;16.00;99.90
15926;DHT22;8062;53.882;10.642;2023-09-19T04:05:37;16.00;99.90
15926;DHT22;8062;53.882;10.642;2023-09-19T04:06:57;16.00;99.90
15926;DHT22;8062;53.882;10.642;2023-09-19T04:08:17;16.00;99.90
15926;DHT22;8062;53.882;10.642;2023-09-19T04:09:36;16.00;99.90
15926;DHT22;8062;53.882;10.642;2023-09-19T04:10:56;16.00;99.90
15926;DHT22;8062;53.882;10.642;2023-09-19T04:12:16;16.00;99.90
15926;DHT22;8062;53.882;10.642;2023-09-19T04:13:36;16.00;99.90
15926;DHT22;8062;53.882;10.642;2023-09-19T04:14:56;16.00;99.90
15926;DHT22;8062;53.882;10.642;2023-09-19T04:16:16;16.00;99.90
15926;DHT22;8062;53.882;10.642;2023-09-19T04:17:35;16.00;99.90
15926;DHT22;8062;53.882;10.642;2023-09-19T04:18:55;16.00;99.90
15926;DHT22;8062;53.882;10.642;2023-09-19T04:20:14;16.00;99.90
15926;DHT22;8062;53.882;10.642;2023-09-19T04:21:35;16.00;99.90
15926;DHT22;8062;53.882;10.642;2023-09-19T04:22:54;15.90;99.90
15926;DHT22;8062;53.882;10.642;2023-09-19T04:24:14;15.90;99.90
15926;DHT22;8062;53.882;10.642;2023-09-19T04:25:33;15.90;99.90
15926;DHT22;8062;53.882;10.642;2023-09-19T04:26:53;15.90;99.90
15926;DHT22;8062;53.882;10.642;2023-09-19T04:28:13;15.80;99.90
15926;DHT22;8062;53.882;10.642;2023-09-19T04:29:32;15.80;99.90
15926;DHT22;8062;53.882;10.642;2023-09-19T04:30:53;15.80;99.90
15926;DHT22;8062;53.882;10.642;2023-09-19T04:32:12;15.70;99.90
15926;DHT22;8062;53.882;10.642;2023-09-19T04:33:32;15.70;99.90
15926;DHT22;8062;53.882;10.642;2023-09-19T04:34:54;15.70;99.90
15926;DHT22;8062;53.882;10.642;2023-09-19T04:36:14;15.60;99.90
15926;DHT22;8062;53.882;10.642;2023-09-19T04:37:43;15.60;99.90
15926;DHT22;8062;53.882;10.642;2023-09-19T04:39:03;15.60;99.90
15926;DHT22;8062;53.882;10.642;2023-09-19T04:40:26;15.50;99.90
15926;DHT22;8062;53.882;10.642;2023-09-19T04:41:46;15.50;99.90
15926;DHT22;8062;53.882;10.642;2023-09-19T04:43:07;15.50;99.90
15926;DHT22;8062;53.882;10.642;2023-09-19T04:44:27;15.50;99.90
15926;DHT22;8062;53.882;10.642;2023-09-19T04:45:47;15.50;99.90
15926;DHT22;8062;53.882;10.642;2023-09-19T04:47:06;15.50;99.90
15926;DHT22;8062;53.882;10.642;2023-09-19T04:48:25;15.50;99.90
15926;DHT22;8062;53.882;10.642;2023-09-19T04:49:45;15.40;99.90
15926;DHT22;8062;53.882;10.642;2023-09-19T04:51:04;15.40;99.90
15926;DHT22;8062;53.882;10.642;2023-09-19T04:52:24;15.40;99.90
15926;DHT22;8062;53.882;10.642;2023-09-19T04:53:44;15.30;99.90
15926;DHT22;8062;53.882;10.642;2023-09-19T04:55:04;15.30;99.90
15926;DHT22;8062;53.882;10.642;2023-09-19T04:56:24;15.20;99.90
15926;DHT22;8062;53.882;10.642;2023-09-19T04:57:45;15.20;99.90
15926;DHT22;8062;53.882;10.642;2023-09-19T04:59:04;15.30;99.90
15926;DHT22;8062;53.882;10.642;2023-09-19T05:00:24;15.30;99.90
15926;DHT22;8062;53.882;10.642;2023-09-19T05:01:44;15.30;99.90
15926;DHT22;8062;53.882;10.642;2023-09-19T05:03:04;15.30;99.90
15926;DHT22;8062;53.882;10.642;2023-09-19T05:04:25;15.30;99.90
15926;DHT22;8062;53.882;10.642;2023-09-19T05:05:44;15.30;99.90
15926;DHT22;8062;53.882;10.642;2023-09-19T05:07:04;15.30;99.90
15926;DHT22;8062;53.882;10.642;2023-09-19T05:08:23;15.30;99.90
15926;DHT22;8062;53.882;10.642;2023-09-19T05:09:43;15.30;99.90
15926;DHT22;8062;53.882;10.642;2023-09-19T05:11:02;15.30;99.90
15926;DHT22;8062;53.882;10.642;2023-09-19T05:12:22;15.40;99.90
15926;DHT22;8062;53.882;10.642;2023-09-19T05:13:41;15.40;99.90
15926;DHT22;8062;53.882;10.642;2023-09-19T05:15:03;15.40;99.90
15926;DHT22;8062;53.882;10.642;2023-09-19T05:16:23;15.40;99.90
15926;DHT22;8062;53.882;10.642;2023-09-19T05:17:51;15.40;99.90
15926;DHT22;8062;53.882;10.642;2023-09-19T05:19:10;15.30;99.90
15926;DHT22;8062;53.882;10.642;2023-09-19T05:20:31;15.30;99.90
15926;DHT22;8062;53.882;10.642;2023-09-19T05:21:56;15.30;99.90
15926;DHT22;8062;53.882;10.642;2023-09-19T05:23:16;15.30;99.90
15926;DHT22;8062;53.882;10.642;2023-09-19T05:24:36;15.30;99.90
15926;DHT22;8062;53.882;10.642;2023-09-19T05:25:55;15.20;99.90
15926;DHT22;8062;53.882;10.642;2023-09-19T05:27:16;15.20;99.90
15926;DHT22;8062;53.882;10.642;2023-09-19T05:28:36;15.20;99.90
15926;DHT22;8062;53.882;10.642;2023-09-19T05:29:57;15.10;99.90
15926;DHT22;8062;53.882;10.642;2023-09-19T05:31:17;15.10;99.90
15926;DHT22;8062;53.882;10.642;2023-09-19T05:32:37;15.10;99.90
15926;DHT22;8062;53.882;10.642;2023-09-19T05:33:56;15.00;99.90
15926;DHT22;8062;53.882;10.642;2023-09-19T05:35:16;15.00;99.90
15926;DHT22;8062;53.882;10.642;2023-09-19T05:36:35;15.00;99.90
15926;DHT22;8062;53.882;10.642;2023-09-19T05:37:55;15.00;99.90
15926;DHT22;8062;53.882;10.642;2023-09-19T05:39:15;15.00;99.90
15926;DHT22;8062;53.882;10.642;2023-09-19T05:40:35;15.10;99.90
15926;DHT22;8062;53.882;10.642;2023-09-19T05:41:54;15.00;99.90
15926;DHT22;8062;53.882;10.642;2023-09-19T05:43:16;15.00;99.90
15926;DHT22;8062;53.882;10.642;2023-09-19T05:44:35;15.00;99.90
15926;DHT22;8062;53.882;10.642;2023-09-19T05:45:55;15.00;99.90
15926;DHT22;8062;53.882;10.642;2023-09-19T05:47:15;15.00;99.90
15926;DHT22;8062;53.882;10.642;2023-09-19T05:48:34;15.00;99.90
15926;DHT22;8062;53.882;10.642;2023-09-19T05:49:55;15.00;99.90
15926;DHT22;8062;53.882;10.642;2023-09-19T05:51:15;14.90;99.90
15926;DHT22;8062;53.882;10.642;2023-09-19T05:52:37;14.90;99.90
15926;DHT22;8062;53.882;10.642;2023-09-19T05:53:57;14.90;99.90
15926;DHT22;8062;53.882;10.642;2023-09-19T05:55:17;14.90;99.90
15926;DHT22;8062;53.882;10.642;2023-09-19T05:56:36;14.90;99.90
15926;DHT22;8062;53.882;10.642;2023-09-19T05:57:56;14.90;99.90
15926;DHT22;8062;53.882;10.642;2023-09-19T05:59:15;14.90;99.90
15926;DHT22;8062;53.882;10.642;2023-09-19T06:00:35;14.90;99.90
15926;DHT22;8062;53.882;10.642;2023-09-19T06:01:55;14.80;99.90
15926;DHT22;8062;53.882;10.642;2023-09-19T06:03:15;14.80;99.90
15926;DHT22;8062;53.882;10.642;2023-09-19T06:04:36;14.80;99.90
15926;DHT22;8062;53.882;10.642;2023-09-19T06:05:59;14.80;99.90
15926;DHT22;8062;53.882;10.642;2023-09-19T06:07:19;14.80;99.90
15926;DHT22;8062;53.882;10.642;2023-09-19T06:08:38;14.90;99.90
15926;DHT22;8062;53.882;10.642;2023-09-19T06:09:58;14.90;99.90
15926;DHT22;8062;53.882;10.642;2023-09-19T06:11:18;14.90;99.90
15926;DHT22;8062;53.882;10.642;2023-09-19T06:12:43;14.90;99.90
15926;DHT22;8062;53.882;10.642;2023-09-19T06:14:03;14.90;99.90
15926;DHT22;8062;53.882;10.642;2023-09-19T06:15:23;14.90;99.90
15926;DHT22;8062;53.882;10.642;2023-09-19T06:16:44;15.00;99.90
15926;DHT22;8062;53.882;10.642;2023-09-19T06:18:04;15.00;99.90
15926;DHT22;8062;53.882;10.642;2023-09-19T06:19:24;15.00;99.90
15926;DHT22;8062;53.882;10.642;2023-09-19T06:20:48;15.00;99.90
15926;DHT22;8062;53.882;10.642;2023-09-19T06:22:09;15.10;99.90
15926;DHT22;8062;53.882;10.642;2023-09-19T06:23:30;15.00;99.90
15926;DHT22;8062;53.882;10.642;2023-09-19T06:24:50;15.10;99.90
15926;DHT22;8062;53.882;10.642;2023-09-19T06:26:09;15.20;99.90
15926;DHT22;8062;53.882;10.642;2023-09-19T06:27:29;15.20;99.90
15926;DHT22;8062;53.882;10.642;2023-09-19T06:28:49;15.30;99.90
15926;DHT22;8062;53.882;10.642;2023-09-19T06:30:10;15.40;99.90
15926;DHT22;8062;53.882;10.642;2023-09-19T06:31:30;15.50;99.90
15926;DHT22;8062;53.882;10.642;2023-09-19T06:32:56;15.50;99.90
15926;DHT22;8062;53.882;10.642;2023-09-19T06:34:15;15.50;99.90
15926;DHT22;8062;53.882;10.642;2023-09-19T06:35:35;15.60;99.90
15926;DHT22;8062;53.882;10.642;2023-09-19T06:36:54;15.60;99.90
15926;DHT22;8062;53.882;10.642;2023-09-19T06:38:14;15.70;99.90
15926;DHT22;8062;53.882;10.642;2023-09-19T06:39:34;15.70;99.90
15926;DHT22;8062;53.882;10.642;2023-09-19T06:40:54;15.70;99.90
15926;DHT22;8062;53.882;10.642;2023-09-19T06:42:14;15.70;99.90
15926;DHT22;8062;53.882;10.642;2023-09-19T06:43:33;15.70;99.90
15926;DHT22;8062;53.882;10.642;2023-09-19T06:44:53;15.80;99.90
15926;DHT22;8062;53.882;10.642;2023-09-19T06:46:13;15.80;99.90
15926;DHT22;8062;53.882;10.642;2023-09-19T06:47:33;15.90;99.90
15926;DHT22;8062;53.882;10.642;2023-09-19T06:48:52;15.80;99.90
15926;DHT22;8062;53.882;10.642;2023-09-19T06:50:12;15.80;99.90
15926;DHT22;8062;53.882;10.642;2023-09-19T06:51:35;15.80;99.90
15926;DHT22;8062;53.882;10.642;2023-09-19T06:52:55;15.80;99.90
15926;DHT22;8062;53.882;10.642;2023-09-19T06:54:16;15.80;99.90
15926;DHT22;8062;53.882;10.642;2023-09-19T06:55:37;15.80;99.90
15926;DHT22;8062;53.882;10.642;2023-09-19T06:56:57;15.80;99.90
15926;DHT22;8062;53.882;10.642;2023-09-19T06:58:19;15.80;99.90
15926;DHT22;8062;53.882;10.642;2023-09-19T06:59:39;15.80;99.90
15926;DHT22;8062;53.882;10.642;2023-09-19T07:00:59;15.80;99.90
15926;DHT22;8062;53.882;10.642;2023-09-19T07:02:18;15.90;99.90
15926;DHT22;8062;53.882;10.642;2023-09-19T07:03:39;15.90;99.90
15926;DHT22;8062;53.882;10.642;2023-09-19T07:04:59;15.90;99.90
15926;DHT22;8062;53.882;10.642;2023-09-19T07:06:19;16.00;99.90
15926;DHT22;8062;53.882;10.642;2023-09-19T07:07:38;16.10;99.90
15926;DHT22;8062;53.882;10.642;2023-09-19T07:08:59;16.20;99.90
15926;DHT22;8062;53.882;10.642;2023-09-19T07:10:18;16.30;99.90
15926;DHT22;8062;53.882;10.642;2023-09-19T07:11:39;16.40;99.90
15926;DHT22;8062;53.882;10.642;2023-09-19T07:12:59;16.50;99.90
15926;DHT22;8062;53.882;10.642;2023-09-19T07:14:19;16.50;99.90
15926;DHT22;8062;53.882;10.642;2023-09-19T07:15:39;16.40;99.90
15926;DHT22;8062;53.882;10.642;2023-09-19T07:17:01;16.40;99.90
15926;DHT22;8062;53.882;10.642;2023-09-19T07:18:20;16.40;99.90
15926;DHT22;8062;53.882;10.642;2023-09-19T07:19:40;16.40;99.90
15926;DHT22;8062;53.882;10.642;2023-09-19T07:21:00;16.40;99.90
15926;DHT22;8062;53.882;10.642;2023-09-19T07:22:24;16.30;99.90
15926;DHT22;8062;53.882;10.642;2023-09-19T07:23:44;16.30;99.90
15926;DHT22;8062;53.882;10.642;2023-09-19T07:25:04;16.20;99.90
15926;DHT22;8062;53.882;10.642;2023-09-19T07:26:24;16.20;99.90
15926;DHT22;8062;53.882;10.642;2023-09-19T07:27:43;16.20;99.90
15926;DHT22;8062;53.882;10.642;2023-09-19T07:29:03;16.30;99.90
15926;DHT22;8062;53.882;10.642;2023-09-19T07:30:23;16.30;99.90
15926;DHT22;8062;53.882;10.642;2023-09-19T07:31:42;16.30;99.90
15926;DHT22;8062;53.882;10.642;2023-09-19T07:33:03;16.20;99.90
15926;DHT22;8062;53.882;10.642;2023-09-19T07:34:24;16.20;99.90
15926;DHT22;8062;53.882;10.642;2023-09-19T07:35:47;16.10;99.90
15926;DHT22;8062;53.882;10.642;2023-09-19T07:37:07;16.20;99.90
15926;DHT22;8062;53.882;10.642;2023-09-19T07:38:28;16.20;99.90
15926;DHT22;8062;53.882;10.642;2023-09-19T07:39:48;16.20;99.90
15926;DHT22;8062;53.882;10.642;2023-09-19T07:41:08;16.20;99.90
15926;DHT22;8062;53.882;10.642;2023-09-19T07:42:28;16.20;99.90
15926;DHT22;8062;53.882;10.642;2023-09-19T07:43:48;16.20;99.90
15926;DHT22;8062;53.882;10.642;2023-09-19T07:45:08;16.20;99.90
15926;DHT22;8062;53.882;10.642;2023-09-19T07:46:28;16.30;99.90
15926;DHT22;8062;53.882;10.642;2023-09-19T07:47:51;16.20;99.90
15926;DHT22;8062;53.882;10.642;2023-09-19T07:49:10;16.30;99.90
15926;DHT22;8062;53.882;10.642;2023-09-19T07:50:30;16.40;99.90
15926;DHT22;8062;53.882;10.642;2023-09-19T07:51:49;16.50;99.90
15926;DHT22;8062;53.882;10.642;2023-09-19T07:53:09;16.60;99.90
15926;DHT22;8062;53.882;10.642;2023-09-19T07:54:29;16.70;99.90
15926;DHT22;8062;53.882;10.642;2023-09-19T07:56:05;16.80;99.90
15926;DHT22;8062;53.882;10.642;2023-09-19T07:57:24;17.00;99.90
15926;DHT22;8062;53.882;10.642;2023-09-19T07:58:44;17.10;99.90
15926;DHT22;8062;53.882;10.642;2023-09-19T08:00:04;17.10;99.90
15926;DHT22;8062;53.882;10.642;2023-09-19T08:01:31;17.10;99.90
15926;DHT22;8062;53.882;10.642;2023-09-19T08:02:52;17.00;99.90
15926;DHT22;8062;53.882;10.642;2023-09-19T08:04:11;16.90;99.90
15926;DHT22;8062;53.882;10.642;2023-09-19T08:05:30;16.90;99.90
15926;DHT22;8062;53.882;10.642;2023-09-19T08:06:50;16.90;99.90
15926;DHT22;8062;53.882;10.642;2023-09-19T08:08:11;16.90;99.90
15926;DHT22;8062;53.882;10.642;2023-09-19T08:09:34;16.90;99.90
15926;DHT22;8062;53.882;10.642;2023-09-19T08:10:54;16.90;99.90
15926;DHT22;8062;53.882;10.642;2023-09-19T08:12:15;16.80;99.90
15926;DHT22;8062;53.882;10.642;2023-09-19T08:13:34;16.90;99.90
15926;DHT22;8062;53.882;10.642;2023-09-19T08:14:54;16.90;99.90
15926;DHT22;8062;53.882;10.642;2023-09-19T08:16:17;16.80;99.90
15926;DHT22;8062;53.882;10.642;2023-09-19T08:17:42;16.80;99.90
15926;DHT22;8062;53.882;10.642;2023-09-19T08:19:02;16.80;99.90
15926;DHT22;8062;53.882;10.642;2023-09-19T08:20:21;16.80;99.90
15926;DHT22;8062;53.882;10.642;2023-09-19T08:21:40;16.80;99.90
15926;DHT22;8062;53.882;10.642;2023-09-19T08:23:00;16.70;99.90
15926;DHT22;8062;53.882;10.642;2023-09-19T08:24:20;16.70;99.90
15926;DHT22;8062;53.882;10.642;2023-09-19T08:25:39;16.70;99.90
15926;DHT22;8062;53.882;10.642;2023-09-19T08:26:59;16.70;99.90
15926;DHT22;8062;53.882;10.642;2023-09-19T08:28:18;16.60;99.90
15926;DHT22;8062;53.882;10.642;2023-09-19T08:29:42;16.70;99.90
15926;DHT22;8062;53.882;10.642;2023-09-19T08:31:06;16.60;99.90
15926;DHT22;8062;53.882;10.642;2023-09-19T08:32:26;16.60;99.90
15926;DHT22;8062;53.882;10.642;2023-09-19T08:33:46;16.60;99.90
15926;DHT22;8062;53.882;10.642;2023-09-19T08:35:10;16.60;99.90
15926;DHT22;8062;53.882;10.642;2023-09-19T08:36:30;16.70;99.90
15926;DHT22;8062;53.882;10.642;2023-09-19T08:37:50;16.70;99.90
15926;DHT22;8062;53.882;10.642;2023-09-19T08:39:10;16.70;99.90
15926;DHT22;8062;53.882;10.642;2023-09-19T08:40:30;16.70;99.90
15926;DHT22;8062;53.882;10.642;2023-09-19T08:41:59;16.80;99.90
15926;DHT22;8062;53.882;10.642;2023-09-19T08:43:21;16.80;99.90